Other Surface Observations
Issued by NWS

Home | Current Version | Previous Version | Text Only | Print | Product List | Glossary On
Versions: 1 2 3 4 5 6 7 8 9 10 11 12 13 14 15 16 17 18 19 20 21 22 23 24 25 26 27 28 29 30 31 32 33 34 35 36 37 38 39 40 41 42 43 44 45 46 47 48 49 50
000
SXUS52 KWBC 300829
OSOGX
:SHEF ENCODED 6-MINUTE NOS MET DATA
:NATIONAL WATER LEVEL OBSERVATION NETWORK (NWLON)
:TA(AIR TEMP DEG F)  SLP(SEA LEVEL PRESSURE INCHES)
:UD(WIND DIRECTION WHOLE DEGREES) US (WIND SPEED MPH)
:TW(WATER TEMP DEG F) UG(WIND GUSTS MPH) WC(CONDUCTIVITY uMHOS/CM)
:-9999 (MISSING VALUES)
:PROVIDED BY DOC/NOAA/NOS/CO-OPS, (301) 713-2540
:corms@noaa.gov
.A NPSF1 20210730 Z DH0818/TAIRP    83/UGIRP -9999/PLIRP 30.03/UDIRP -9999/USIRP -9999/TWIRP    88/WCIRP -9999
.E NPSF1 20210730 Z DH0812/TAIRG/DIN06/   84/   83
.E NPSF1 20210730 Z DH0812/PLIRG/DIN06/30.03/30.03
.E NPSF1 20210730 Z DH0812/TWIRG/DIN06/   88/   88
.A FMRF1 20210730 Z DH0818/TAIRP    77/UGIRP     3/PLIRP 30.02/UDIRP    67/USIRP     2/TWIRP    89/WCIRP -9999
.E FMRF1 20210730 Z DH0812/TAIRG/DIN06/   78/   77
.E FMRF1 20210730 Z DH0812/PLIRG/DIN06/30.02/30.02
.E FMRF1 20210730 Z DH0812/USIRG/DIN06/    2/    2
.E FMRF1 20210730 Z DH0812/UDIRG/DIN06/   91/   67
.E FMRF1 20210730 Z DH0812/UGIRG/DIN06/    5/    3
.E FMRF1 20210730 Z DH0812/TWIRG/DIN06/   89/   89
.A PMAF1 20210730 Z DH0812/TAIRG    77/UGIRG -9999/PLIRG 30.01/UDIRG -9999/USIRG -9999/TWIRG    87/WCIRG -9999
.E MTBF1 20210730 Z DH0812/TAIRG/DIN06/   79/   80
.E MTBF1 20210730 Z DH0812/USIRG/DIN06/   10/   11
.E MTBF1 20210730 Z DH0812/UDIRG/DIN06/  177/  175
.E MTBF1 20210730 Z DH0812/UGIRG/DIN06/   11/   12
.A SAPF1 20210730 Z DH0818/TAIRP    81/UGIRP     9/PLIRP 30.02/UDIRP   201/USIRP     6/TWIRP    87/WCIRP -9999
.E SAPF1 20210730 Z DH0806/TAIRG/DIN06/   81/   81
.E SAPF1 20210730 Z DH0806/PLIRG/DIN06/30.01/30.01
.E SAPF1 20210730 Z DH0806/USIRG/DIN06/    8/    8
.E SAPF1 20210730 Z DH0806/UDIRG/DIN06/  188/  204
.E SAPF1 20210730 Z DH0806/UGIRG/DIN06/   11/   10
.E SAPF1 20210730 Z DH0806/TWIRG/DIN06/   87/   87
.A GCTF1 20210730 Z DH0818/TAIRP    79/UGIRP -9999/PLIRP 29.98/UDIRP -9999/USIRP -9999/TWIRP -9999/WCIRP -9999
.A OPTF1 20210730 Z DH0818/TAIRP    80/UGIRP     9/PLIRP 30.01/UDIRP   171/USIRP     6/TWIRP    88/WCIRP -9999
.E OPTF1 20210730 Z DH0812/TAIRG/DIN06/   80/   80
.E OPTF1 20210730 Z DH0812/PLIRG/DIN06/30.01/30.01
.E OPTF1 20210730 Z DH0812/USIRG/DIN06/    8/    6
.E OPTF1 20210730 Z DH0812/UDIRG/DIN06/  165/  171
.E OPTF1 20210730 Z DH0812/UGIRG/DIN06/   10/    9
.E OPTF1 20210730 Z DH0812/TWIRG/DIN06/   88/   88
.E SKCF1 20210730 Z DH0806/USIRP/DIN06/    5/    7
.E SKCF1 20210730 Z DH0806/UDIRP/DIN06/  130/  155
.E SKCF1 20210730 Z DH0806/UGIRP/DIN06/    7/    9
.E EBEF1 20210730 Z DH0806/TAIRG/DIN06/   77/   78
.E EBEF1 20210730 Z DH0806/PLIRG/DIN06/30.00/30.00
.E EBEF1 20210730 Z DH0806/TWIRG/DIN06/   90/   89
.E TSHF1 20210730 Z DH0806/USIRP/DIN06/    5/    8
.E TSHF1 20210730 Z DH0806/UDIRP/DIN06/  105/  129
.E TSHF1 20210730 Z DH0806/UGIRP/DIN06/    9/   10
.E TPAF1 20210730 Z DH0806/USIRP/DIN06/    6/    4
.E TPAF1 20210730 Z DH0806/UDIRP/DIN06/  170/  163
.E TPAF1 20210730 Z DH0806/UGIRP/DIN06/    8/    8
.E CWBF1 20210730 Z DH0806/TAIRG/DIN06/   80/   80
.E CWBF1 20210730 Z DH0806/PLIRG/DIN06/30.01/30.01
.E CWBF1 20210730 Z DH0806/USIRG/DIN06/    5/    5
.E CWBF1 20210730 Z DH0806/UDIRG/DIN06/  124/  132
.E CWBF1 20210730 Z DH0806/UGIRG/DIN06/    9/    8
.E CWBF1 20210730 Z DH0806/TWIRG/DIN06/   89/   89
.A CKYF1 20210730 Z DH0818/TAIRP    82/UGIRP     9/PLIRP 29.96/UDIRP   152/USIRP     6/TWIRP    88/WCIRP -9999
.E APCF1 20210730 Z DH0812/TAIRG/DIN06/   80/   80
.E APCF1 20210730 Z DH0812/PLIRG/DIN06/29.99/29.99
.E APCF1 20210730 Z DH0812/USIRG/DIN06/    9/    8
.E APCF1 20210730 Z DH0812/UDIRG/DIN06/  239/  238
.E APCF1 20210730 Z DH0812/UGIRG/DIN06/   13/   11
.E APCF1 20210730 Z DH0812/TWIRG/DIN06/   83/   83
.E PACF1 20210730 Z DH0812/USIRG/DIN06/    6/    5
.E PACF1 20210730 Z DH0812/UDIRG/DIN06/  333/  331
.E PACF1 20210730 Z DH0812/UGIRG/DIN06/    9/    9
.E PACF1 20210730 Z DH0812/TWIRG/DIN06/   88/   88
.A PCBF1 20210730 Z DH0818/TAIRP    80/UGIRP    11/PLIRP 29.99/UDIRP   330/USIRP     8/TWIRP    86/WCIRP -9999
.E PCBF1 20210730 Z DH0806/TAIRG/DIN06/   80/   80
.E PCBF1 20210730 Z DH0806/PLIRG/DIN06/29.99/29.99
.E PCBF1 20210730 Z DH0806/USIRG/DIN06/    8/    9
.E PCBF1 20210730 Z DH0806/UDIRG/DIN06/  333/  330
.E PCBF1 20210730 Z DH0806/UGIRG/DIN06/   11/   11
.E PCBF1 20210730 Z DH0806/TWIRG/DIN06/   86/   86
.A PCLF1 20210730 Z DH0818/TAIRP    82/UGIRP    12/PLIRP 29.98/UDIRP   333/USIRP     7/TWIRP    88/WCIRP -9999
.E PCLF1 20210730 Z DH0812/TAIRG/DIN06/   82/   82
.E PCLF1 20210730 Z DH0812/PLIRG/DIN06/29.98/29.98
.E PCLF1 20210730 Z DH0812/USIRG/DIN06/    7/    7
.E PCLF1 20210730 Z DH0812/UDIRG/DIN06/  330/  333
.E PCLF1 20210730 Z DH0812/UGIRG/DIN06/   11/   12
.E PCLF1 20210730 Z DH0812/TWIRG/DIN06/   88/   88
.A WBYA1 20210730 Z DH0818/TAIRP -9999/UGIRP -9999/PLIRP -9999/UDIRP -9999/USIRP -9999/TWIRP    89/WCIRG -9999
.E WBYA1 20210730 Z DH0812/TWIRG/DIN06/   89/   89
.A EFLA1 20210730 Z DH0818/TAIRP    84/UGIRP -9999/PLIRP -9999/UDIRP -9999/USIRP -9999/TWIRP -9999/WCIRG -9999
.E EFLA1 20210730 Z DH0812/TAIRG/DIN06/   84/   84
.A FMOA1 20210730 Z DH0818/TAIRP    85/UGIRP -9999/PLIRP 30.00/UDIRP -9999/USIRP -9999/TWIRP -9999/WCIRP -9999
.E FMOA1 20210730 Z DH0806/TAIRG/DIN06/   85/   85
.E FMOA1 20210730 Z DH0806/PLIRG/DIN06/30.00/30.00
.A DILA1 20210730 Z DH0818/TAIRP -9999/UGIRP    10/PLIRP -9999/UDIRP   261/USIRP     8/TWIRP -9999/WCIRG -9999
.E DILA1 20210730 Z DH0806/USIRG/DIN06/    7/    8
.E DILA1 20210730 Z DH0806/UDIRG/DIN06/  244/  238
.E DILA1 20210730 Z DH0806/UGIRG/DIN06/    8/   10
.A MBPA1 20210730 Z DH0818/TAIRP    80/UGIRP -9999/PLIRP -9999/UDIRP -9999/USIRP -9999/TWIRP -9999/WCIRG -9999
.E MBPA1 20210730 Z DH0812/TAIRG/DIN06/   80/   80
.A MCGA1 20210730 Z DH0818/TAIRP    82/UGIRP     4/PLIRP 29.98/UDIRP   354/USIRP     2/TWIRP    87/WCIRP -9999
.E MCGA1 20210730 Z DH0812/TAIRG/DIN06/   82/   82
.E MCGA1 20210730 Z DH0812/PLIRG/DIN06/29.98/29.98
.E MCGA1 20210730 Z DH0812/USIRG/DIN06/    3/    2
.E MCGA1 20210730 Z DH0812/UDIRG/DIN06/  352/  354
.E MCGA1 20210730 Z DH0812/UGIRG/DIN06/    3/    4
.E MCGA1 20210730 Z DH0812/TWIRG/DIN06/   87/   87
.A PTOA1 20210730 Z DH0818/TAIRP    82/UGIRP -9999/PLIRP -9999/UDIRP -9999/USIRP -9999/TWIRP -9999/WCIRG -9999
.E PTOA1 20210730 Z DH0812/TAIRG/DIN06/   82/   82
.A OBLA1 20210730 Z DH0818/TAIRP    81/UGIRP -9999/PLIRP 30.01/UDIRP -9999/USIRP -9999/TWIRP    85/WCIRP -9999
.E OBLA1 20210730 Z DH0806/TAIRG/DIN06/   81/   81
.E OBLA1 20210730 Z DH0806/PLIRG/DIN06/30.01/30.01
.E OBLA1 20210730 Z DH0806/WCIRG/DIN06/ 2290/ 2320
.E OBLA1 20210730 Z DH0806/TWIRG/DIN06/   85/   85
.A PTBM6 20210730 Z DH0818/TAIRP    85/UGIRP -9999/PLIRP 30.02/UDIRP -9999/USIRP -9999/TWIRP -9999/WCIRP -9999
.E PTBM6 20210730 Z DH0806/TAIRG/DIN06/   85/   85
.E PTBM6 20210730 Z DH0806/PLIRG/DIN06/30.01/30.01
.E PNLM6 20210730 Z DH0806/TWIRG/DIN06/   84/   84
.A WYCM6 20210730 Z DH0818/TAIRP    87/UGIRP     9/PLIRP -9999/UDIRP   348/USIRP     8/TWIRP    86/WCIRG -9999
.E WYCM6 20210730 Z DH0806/TAIRG/DIN06/   87/   87
.E WYCM6 20210730 Z DH0806/USIRG/DIN06/    7/    7
.E WYCM6 20210730 Z DH0806/UDIRG/DIN06/  343/  341
.E WYCM6 20210730 Z DH0806/UGIRG/DIN06/    8/    9
.E WYCM6 20210730 Z DH0806/TWIRG/DIN06/   86/   86
.E PILL1 20210730 Z DH0812/TAIRG/DIN06/   83/   83
.E PILL1 20210730 Z DH0812/PLIRG/DIN06/30.02/30.02
.E PILL1 20210730 Z DH0812/USIRG/DIN06/    4/    5
.E PILL1 20210730 Z DH0812/UDIRG/DIN06/  219/  213
.E PILL1 20210730 Z DH0812/UGIRG/DIN06/    5/    6
.E PILL1 20210730 Z DH0812/TWIRG/DIN06/   86/   86
.E PSTL1 20210730 Z DH0806/TAIRG/DIN06/   85/   84
.E PSTL1 20210730 Z DH0806/PLIRG/DIN06/29.97/29.97
.E PSTL1 20210730 Z DH0806/TWIRG/DIN06/   85/   85
.E SHBL1 20210730 Z DH0806/TAIRG/DIN06/   82/   82
.E SHBL1 20210730 Z DH0806/PLIRG/DIN06/30.02/30.02
.E SHBL1 20210730 Z DH0806/USIRG/DIN06/    5/    7
.E SHBL1 20210730 Z DH0806/UDIRG/DIN06/  237/  239
.E SHBL1 20210730 Z DH0806/UGIRG/DIN06/    6/    8
.E SHBL1 20210730 Z DH0806/TWIRG/DIN06/   91/   91
.E GISL1 20210730 Z DH0812/TAIRG/DIN06/   84/   84
.E GISL1 20210730 Z DH0812/PLIRG/DIN06/30.01/30.02
.E GISL1 20210730 Z DH0812/USIRG/DIN06/    3/    3
.E GISL1 20210730 Z DH0812/UDIRG/DIN06/  268/  277
.E GISL1 20210730 Z DH0812/UGIRG/DIN06/    4/    6
.E GISL1 20210730 Z DH0812/TWIRG/DIN06/   91/   91
.A NWCL1 20210730 Z DH0812/TAIRG    84/UGIRG     5/PLIRG 29.99/UDIRG   219/USIRG     4/TWIRG    90/WCIRG -9999
.A CARL1 20210730 Z DH0818/TAIRP -9999/UGIRP -9999/PLIRP -9999/UDIRP -9999/USIRP -9999/TWIRP    86/WCIRG -9999
.E CARL1 20210730 Z DH0812/TWIRG/DIN06/   86/   86
.A BYGL1 20210730 Z DH0818/TAIRP    79/UGIRP     2/PLIRP 30.02/UDIRP   277/USIRP     1/TWIRP    89/WCIRP -9999
.A BYGL1 20210730 Z DH0812/TAIRG    79/UGIRG     2/PLIRG 30.01/UDIRG   260/USIRG     2/TWIRG    89/WCIRG -9999
.A FREL1 20210730 Z DH0818/TAIRP    77/UGIRP     3/PLIRP 29.98/UDIRP   271/USIRP     1/TWIRP -9999/WCIRP -9999
.A TESL1 20210730 Z DH0818/TAIRP    78/UGIRP     2/PLIRP 30.03/UDIRP   349/USIRP     1/TWIRP    86/WCIRP -9999
.A TESL1 20210730 Z DH0812/TAIRG    78/UGIRG     3/PLIRG 30.03/UDIRG    22/USIRG     1/TWIRG    86/WCIRG -9999
.E AMRL1 20210730 Z DH0812/TAIRG/DIN06/   79/   79
.E AMRL1 20210730 Z DH0812/PLIRG/DIN06/30.02/30.02
.E AMRL1 20210730 Z DH0812/USIRG/DIN06/    3/    2
.E AMRL1 20210730 Z DH0812/UDIRG/DIN06/   61/   70
.E AMRL1 20210730 Z DH0812/UGIRG/DIN06/    4/    4
.E AMRL1 20210730 Z DH0812/TWIRG/DIN06/   86/   86
.A EINL1 20210730 Z DH0812/TAIRG    83/UGIRG    11/PLIRG 30.01/UDIRG    10/USIRG     9/TWIRG    86/WCIRG   350
.A FRWL1 20210730 Z DH0818/TAIRP -9999/UGIRP     5/PLIRP -9999/UDIRP   345/USIRP     4/TWIRP -9999/WCIRG -9999
.A FRWL1 20210730 Z DH0812/TAIRG -9999/UGIRG     4/PLIRG -9999/UDIRG   351/USIRG     3/TWIRG -9999/WCIRG -9999
.A LCLL1 20210730 Z DH0818/TAIRP    80/UGIRP -9999/PLIRP 30.01/UDIRP -9999/USIRP -9999/TWIRP    87/WCIRP -9999
.A LCLL1 20210730 Z DH0812/TAIRG    80/UGIRG -9999/PLIRG 30.01/UDIRG -9999/USIRG -9999/TWIRG    87/WCIRG -9999
.E BKTL1 20210730 Z DH0806/TWIRG/DIN06/   91/   91
.A CAPL1 20210730 Z DH0818/TAIRP    82/UGIRP     4/PLIRP 29.96/UDIRP    72/USIRP     3/TWIRP    89/WCIRP -9999
.A CAPL1 20210730 Z DH0812/TAIRG    82/UGIRG     3/PLIRG 29.95/UDIRG   102/USIRG     3/TWIRG    89/WCIRG -9999
.A PORT2 20210730 Z DH0818/TAIRP    80/UGIRP     3/PLIRP 30.00/UDIRP     1/USIRP     2/TWIRP    86/WCIRP -9999
.E PORT2 20210730 Z DH0806/TAIRG/DIN06/   81/   80
.E PORT2 20210730 Z DH0806/PLIRG/DIN06/30.00/30.00
.E PORT2 20210730 Z DH0806/USIRG/DIN06/    4/    3
.E PORT2 20210730 Z DH0806/UDIRG/DIN06/  358/  338
.E PORT2 20210730 Z DH0806/UGIRG/DIN06/    5/    5
.E PORT2 20210730 Z DH0806/TWIRG/DIN06/   86/   86
.A MGPT2 20210730 Z DH0818/TAIRP    84/UGIRP     6/PLIRP 30.00/UDIRP   242/USIRP     5/TWIRP    88/WCIRP -9999
.A MGPT2 20210730 Z DH0812/TAIRG    85/UGIRG     7/PLIRG 30.00/UDIRG   183/USIRG     3/TWIRG    88/WCIRG 22820
.A NCHT2 20210730 Z DH0818/TAIRP    83/UGIRP     5/PLIRP 29.99/UDIRP   206/USIRP     2/TWIRP    87/WCIRP -9999
.A NCHT2 20210730 Z DH0812/TAIRG    83/UGIRG     5/PLIRG 30.00/UDIRG   205/USIRG     2/TWIRG    87/WCIRG -9999
.A HIST2 20210730 Z DH0818/TAIRP    80/UGIRP     6/PLIRP 29.99/UDIRP   186/USIRP     5/TWIRP    88/WCIRP -9999
.E HIST2 20210730 Z DH0806/TAIRG/DIN06/   80/   80
.E HIST2 20210730 Z DH0806/PLIRG/DIN06/29.98/29.99
.E HIST2 20210730 Z DH0806/USIRG/DIN06/    4/    5
.E HIST2 20210730 Z DH0806/UDIRG/DIN06/  197/  179
.E HIST2 20210730 Z DH0806/UGIRG/DIN06/    5/    6
.E HIST2 20210730 Z DH0806/TWIRG/DIN06/   88/   88
.A TXPT2 20210730 Z DH0818/TAIRP    82/UGIRP     5/PLIRP 29.97/UDIRP   224/USIRP     4/TWIRP    88/WCIRP -9999
.E TXPT2 20210730 Z DH0812/TAIRG/DIN06/   82/   82
.E TXPT2 20210730 Z DH0812/PLIRG/DIN06/29.97/29.97
.E TXPT2 20210730 Z DH0812/USIRG/DIN06/    0/    4
.E TXPT2 20210730 Z DH0812/UDIRG/DIN06/  259/  224
.E TXPT2 20210730 Z DH0812/UGIRG/DIN06/    4/    5
.E TXPT2 20210730 Z DH0812/TWIRG/DIN06/   88/   88
.A RLOT2 20210730 Z DH0818/TAIRP    83/UGIRP     7/PLIRP 29.98/UDIRP   200/USIRP     4/TWIRP    88/WCIRP -9999
.A RLOT2 20210730 Z DH0812/TAIRG    83/UGIRG     7/PLIRG 29.98/UDIRG   186/USIRG     4/TWIRG    88/WCIRG -9999
.A EPTT2 20210730 Z DH0818/TAIRP    85/UGIRP     9/PLIRP 29.99/UDIRP   165/USIRP     8/TWIRP    90/WCIRP -9999
.E EPTT2 20210730 Z DH0806/TAIRG/DIN06/   85/   85
.E EPTT2 20210730 Z DH0806/PLIRG/DIN06/29.98/29.99
.E EPTT2 20210730 Z DH0806/USIRG/DIN06/    7/    7
.E EPTT2 20210730 Z DH0806/UDIRG/DIN06/  171/  166
.E EPTT2 20210730 Z DH0806/UGIRG/DIN06/    9/   10
.E EPTT2 20210730 Z DH0806/WCIRG/DIN06/17630/17620
.E EPTT2 20210730 Z DH0806/TWIRG/DIN06/   90/   90
.E GNJT2 20210730 Z DH0806/TAIRG/DIN06/   85/   84
.E GNJT2 20210730 Z DH0806/PLIRG/DIN06/29.97/29.97
.E GNJT2 20210730 Z DH0806/USIRG/DIN06/    7/    6
.E GNJT2 20210730 Z DH0806/UDIRG/DIN06/  154/  165
.E GNJT2 20210730 Z DH0806/UGIRG/DIN06/    8/    8
.E GNJT2 20210730 Z DH0806/TWIRG/DIN06/   88/   88
.A GTOT2 20210730 Z DH0818/TAIRP    84/UGIRP     6/PLIRP 29.99/UDIRP   163/USIRP     3/TWIRP    87/WCIRP -9999
.A GTOT2 20210730 Z DH0812/TAIRG    84/UGIRG     6/PLIRG 29.99/UDIRG   173/USIRG     3/TWIRG    87/WCIRG -9999
.A GRRT2 20210730 Z DH0818/TAIRP    84/UGIRP     7/PLIRP 29.98/UDIRP   157/USIRP     6/TWIRP    89/WCIRP -9999
.A GRRT2 20210730 Z DH0812/TAIRG    84/UGIRG     7/PLIRG 29.98/UDIRG   157/USIRG     6/TWIRG    89/WCIRG -9999
.E LUIT2 20210730 Z DH0818/TAIRP/DIN06/   83/   83
.E LUIT2 20210730 Z DH0818/PLIRP/DIN06/29.99/29.99
.E LUIT2 20210730 Z DH0818/TWIRP/DIN06/   88/   88
.A LUIT2 20210730 Z DH0812/TAIRG    83/UGIRG -9999/PLIRG 29.98/UDIRG -9999/USIRG -9999/TWIRG    88/WCIRG -9999
.A FPST2 20210730 Z DH0818/TAIRP    83/UGIRP     8/PLIRP 29.97/UDIRP   170/USIRP     8/TWIRP    86/WCIRP -9999
.E FPST2 20210730 Z DH0812/TAIRG/DIN06/   83/   83
.E FPST2 20210730 Z DH0812/PLIRG/DIN06/29.97/29.97
.E FPST2 20210730 Z DH0812/USIRG/DIN06/    6/    8
.E FPST2 20210730 Z DH0812/UDIRG/DIN06/  142/  170
.E FPST2 20210730 Z DH0812/UGIRG/DIN06/    7/    8
.E FPST2 20210730 Z DH0812/TWIRG/DIN06/   86/   86
.A SGNT2 20210730 Z DH0818/TAIRP    84/UGIRP     8/PLIRP 29.99/UDIRP   160/USIRP     5/TWIRP    86/WCIRP -9999
.E SGNT2 20210730 Z DH0812/TAIRG/DIN06/   84/   84
.E SGNT2 20210730 Z DH0812/PLIRG/DIN06/29.99/29.99
.E SGNT2 20210730 Z DH0812/USIRG/DIN06/    5/    5
.E SGNT2 20210730 Z DH0812/UDIRG/DIN06/  162/  160
.E SGNT2 20210730 Z DH0812/UGIRG/DIN06/    7/    8
.E SGNT2 20210730 Z DH0812/TWIRG/DIN06/   86/   86
.A SDRT2 20210730 Z DH0812/TAIRG    81/UGIRG     4/PLIRG 29.98/UDIRG    51/USIRG     2/TWIRG    88/WCIRG -9999
.A EMAT2 20210730 Z DH0818/TAIRP    83/UGIRP     9/PLIRP 29.98/UDIRP   153/USIRP     7/TWIRP    89/WCIRP -9999
.E EMAT2 20210730 Z DH0806/TAIRG/DIN06/   83/   83
.E EMAT2 20210730 Z DH0806/PLIRG/DIN06/29.97/29.98
.E EMAT2 20210730 Z DH0806/USIRG/DIN06/    7/    6
.E EMAT2 20210730 Z DH0806/UDIRG/DIN06/  145/  144
.E EMAT2 20210730 Z DH0806/UGIRG/DIN06/    9/    8
.E EMAT2 20210730 Z DH0806/TWIRG/DIN06/   89/   89
.A VCAT2 20210730 Z DH0818/TAIRP    83/UGIRP     8/PLIRP 29.99/UDIRP   165/USIRP     5/TWIRP    86/WCIRP -9999
.E VCAT2 20210730 Z DH0806/TAIRG/DIN06/   83/   83
.E VCAT2 20210730 Z DH0806/PLIRG/DIN06/29.98/29.98
.E VCAT2 20210730 Z DH0806/USIRG/DIN06/    7/    6
.E VCAT2 20210730 Z DH0806/UDIRG/DIN06/  152/  158
.E VCAT2 20210730 Z DH0806/UGIRG/DIN06/    9/    9
.E VCAT2 20210730 Z DH0806/TWIRG/DIN06/   86/   86
.E PCNT2 20210730 Z DH0806/TAIRG/DIN06/   83/   83
.E PCNT2 20210730 Z DH0806/PLIRG/DIN06/29.97/29.98
.E PCNT2 20210730 Z DH0806/USIRG/DIN06/   11/   10
.E PCNT2 20210730 Z DH0806/UDIRG/DIN06/  120/  122
.E PCNT2 20210730 Z DH0806/UGIRG/DIN06/   12/   12
.E PCNT2 20210730 Z DH0806/TWIRG/DIN06/   89/   89
.A MBET2 20210730 Z DH0818/TAIRP    84/UGIRP    10/PLIRP 29.95/UDIRP   184/USIRP     9/TWIRP -9999/WCIRP -9999
.A MBET2 20210730 Z DH0812/TAIRG    84/UGIRG    11/PLIRG 29.95/UDIRG   188/USIRG     9/TWIRG -9999/WCIRG -9999
.E AWRT2 20210730 Z DH0806/TAIRG/DIN06/   83/   83
.E AWRT2 20210730 Z DH0806/PLIRG/DIN06/29.96/29.96
.E AWRT2 20210730 Z DH0806/USIRG/DIN06/    6/    4
.E AWRT2 20210730 Z DH0806/UDIRG/DIN06/  144/  165
.E AWRT2 20210730 Z DH0806/UGIRG/DIN06/    8/    6
.E AWRT2 20210730 Z DH0806/TWIRG/DIN06/   88/   88
.E RCPT2 20210730 Z DH0818/TAIRP/DIN06/   84/   84
.E RCPT2 20210730 Z DH0818/PLIRP/DIN06/30.00/30.00
.E RCPT2 20210730 Z DH0818/USIRP/DIN06/    3/    4
.E RCPT2 20210730 Z DH0818/UDIRP/DIN06/  127/  138
.E RCPT2 20210730 Z DH0818/UGIRP/DIN06/    7/    6
.E RCPT2 20210730 Z DH0818/TWIRP/DIN06/   90/   90
.A RCPT2 20210730 Z DH0812/TAIRG    84/UGIRG     8/PLIRG 30.00/UDIRG   128/USIRG     4/TWIRG    90/WCIRG -9999
.E VTBT2 20210730 Z DH0818/TAIRP/DIN06/   80/   80
.E VTBT2 20210730 Z DH0812/TAIRG/DIN06/   80/   80
.E VTBT2 20210730 Z DH0812/PLIRG/DIN06/29.98/29.98
.E HIVT2 20210730 Z DH0812/TAIRG/DIN06/   83/   83
.E HIVT2 20210730 Z DH0812/PLIRG/DIN06/29.96/29.97
.E UTVT2 20210730 Z DH0812/TAIRG/DIN06/   83/   83
.E UTVT2 20210730 Z DH0812/PLIRG/DIN06/29.93/29.93
.A RTAT2 20210730 Z DH0818/TAIRP    82/UGIRP     4/PLIRP 29.95/UDIRP   124/USIRP     1/TWIRP    86/WCIRP -9999
.A RTAT2 20210730 Z DH0812/TAIRG    82/UGIRG     5/PLIRG 29.95/UDIRG   135/USIRG     3/TWIRG    86/WCIRG -9999
.A ANPT2 20210730 Z DH0818/TAIRP    83/UGIRP     6/PLIRP 29.95/UDIRP   108/USIRP     4/TWIRP    86/WCIRP -9999
.E ANPT2 20210730 Z DH0812/TAIRG/DIN06/   83/   83
.E ANPT2 20210730 Z DH0812/PLIRG/DIN06/29.95/29.95
.E ANPT2 20210730 Z DH0812/USIRG/DIN06/    6/    4
.E ANPT2 20210730 Z DH0812/UDIRG/DIN06/  106/  108
.E ANPT2 20210730 Z DH0812/UGIRG/DIN06/    7/    6
.E ANPT2 20210730 Z DH0812/TWIRG/DIN06/   86/   86
.E NUET2 20210730 Z DH0806/PLIRG/DIN06/29.99/29.99
.E NUET2 20210730 Z DH0806/USIRG/DIN06/    7/    8
.E NUET2 20210730 Z DH0806/UDIRG/DIN06/  185/  181
.E NUET2 20210730 Z DH0806/UGIRG/DIN06/    9/    9
.E MHBT2 20210730 Z DH0812/TAIRG/DIN06/   84/   84
.E MHBT2 20210730 Z DH0812/PLIRG/DIN06/29.97/29.97
.E TLVT2 20210730 Z DH0812/TAIRG/DIN06/   82/   82
.E TLVT2 20210730 Z DH0812/PLIRG/DIN06/29.97/29.97
.E TAQT2 20210730 Z DH0812/TAIRG/DIN06/   83/   83
.E TAQT2 20210730 Z DH0812/PLIRG/DIN06/29.95/29.95
.E TAQT2 20210730 Z DH0812/TWIRG/DIN06/   89/   89
.E PACT2 20210730 Z DH0818/USIRP/DIN06/    3/    4
.E PACT2 20210730 Z DH0818/UDIRP/DIN06/  158/  170
.E PACT2 20210730 Z DH0818/UGIRP/DIN06/    4/    5
.A MQTT2 20210730 Z DH0818/TAIRP    83/UGIRP    10/PLIRP -9999/UDIRP   152/USIRP     9/TWIRP -9999/WCIRG -9999
.A IRDT2 20210730 Z DH0818/TAIRP    83/UGIRP     9/PLIRP 29.97/UDIRP   182/USIRP     6/TWIRP    87/WCIRP -9999
.E IRDT2 20210730 Z DH0806/TAIRG/DIN06/   83/   83
.E IRDT2 20210730 Z DH0806/PLIRG/DIN06/29.97/29.97
.E IRDT2 20210730 Z DH0806/USIRG/DIN06/    8/    7
.E IRDT2 20210730 Z DH0806/UDIRG/DIN06/  179/  180
.E IRDT2 20210730 Z DH0806/UGIRG/DIN06/    9/   10
.E IRDT2 20210730 Z DH0806/TWIRG/DIN06/   87/   87
.A BABT2 20210730 Z DH0818/TAIRP    83/UGIRP    11/PLIRP 29.99/UDIRP   156/USIRP     9/TWIRP    89/WCIRP -9999
.A BABT2 20210730 Z DH0812/TAIRG    82/UGIRG    11/PLIRG 29.99/UDIRG   153/USIRG     9/TWIRG    89/WCIRG -9999
.A RSJT2 20210730 Z DH0818/TAIRP    79/UGIRP    10/PLIRP 29.98/UDIRP   216/USIRP     8/TWIRP    88/WCIRP -9999
.A RSJT2 20210730 Z DH0812/TAIRG    79/UGIRG     9/PLIRG 29.98/UDIRG   214/USIRG     8/TWIRG    88/WCIRG -9999
.A PMNT2 20210730 Z DH0818/TAIRP    79/UGIRP -9999/PLIRP 29.99/UDIRP -9999/USIRP -9999/TWIRP    88/WCIRP -9999
.E PMNT2 20210730 Z DH0806/TAIRG/DIN06/   79/   79
.E PMNT2 20210730 Z DH0806/PLIRG/DIN06/29.99/29.99
.E PMNT2 20210730 Z DH0806/TWIRG/DIN06/   89/   88
.A RLIT2 20210730 Z DH0818/TAIRP    82/UGIRP    14/PLIRP 29.95/UDIRP   200/USIRP    11/TWIRP    87/WCIRP -9999
.E RLIT2 20210730 Z DH0806/TAIRG/DIN06/   83/   83
.E RLIT2 20210730 Z DH0806/PLIRG/DIN06/29.96/29.95
.E RLIT2 20210730 Z DH0806/USIRG/DIN06/   14/   12
.E RLIT2 20210730 Z DH0806/UDIRG/DIN06/  185/  206
.E RLIT2 20210730 Z DH0806/UGIRG/DIN06/   16/   17
.E RLIT2 20210730 Z DH0806/TWIRG/DIN06/   87/   87
.A PCGT2 20210730 Z DH0812/TAIRG    82/UGIRG    13/PLIRG 29.97/UDIRG   173/USIRG    11/TWIRG    83/WCIRG -9999
.A BZST2 20210730 Z DH0818/TAIRP    82/UGIRP    17/PLIRP 29.95/UDIRP   171/USIRP    14/TWIRP    83/WCIRP -9999
.E BZST2 20210730 Z DH0806/TAIRG/DIN06/   82/   82
.E BZST2 20210730 Z DH0806/PLIRG/DIN06/29.96/29.95
.E BZST2 20210730 Z DH0806/USIRG/DIN06/   14/   15
.E BZST2 20210730 Z DH0806/UDIRG/DIN06/  164/  169
.E BZST2 20210730 Z DH0806/UGIRG/DIN06/   17/   17
.E BZST2 20210730 Z DH0806/TWIRG/DIN06/   83/   83
.A PTIT2 20210730 Z DH0818/TAIRP    82/UGIRP    10/PLIRP 30.01/UDIRP   173/USIRP     7/TWIRP    86/WCIRP -9999
.E PTIT2 20210730 Z DH0806/TAIRG/DIN06/   82/   82
.E PTIT2 20210730 Z DH0806/PLIRG/DIN06/30.02/30.02
.E PTIT2 20210730 Z DH0806/USIRG/DIN06/    8/    7
.E PTIT2 20210730 Z DH0806/UDIRG/DIN06/  170/  173
.E PTIT2 20210730 Z DH0806/UGIRG/DIN06/   11/   11
.E PTIT2 20210730 Z DH0806/TWIRG/DIN06/   86/   86
.A CHSV3 20210730 Z DH0818/TAIRP    83/UGIRP     6/PLIRP 30.02/UDIRP    81/USIRP     3/TWIRP    83/WCIRP -9999
.A LAMV3 20210730 Z DH0818/TAIRP    82/UGIRP -9999/PLIRP 30.04/UDIRP -9999/USIRP -9999/TWIRP -9999/WCIRP -9999
.E LAMV3 20210730 Z DH0806/TAIRG/DIN06/   82/   82
.E LAMV3 20210730 Z DH0806/PLIRG/DIN06/30.04/30.04
.A LTBV3 20210730 Z DH0812/TAIRG    82/UGIRG    18/PLIRG 30.05/UDIRG   107/USIRG    10/TWIRG    84/WCIRG -9999
.A CHAV3 20210730 Z DH0818/TAIRP    81/UGIRP -9999/PLIRP 30.02/UDIRP -9999/USIRP -9999/TWIRP -9999/WCIRP -9999
.A CHAV3 20210730 Z DH0812/TAIRG    81/UGIRG -9999/PLIRG 30.02/UDIRG -9999/USIRG -9999/TWIRG -9999/WCIRG -9999
.A CLBP4 20210730 Z DH0818/TAIRP    81/UGIRP -9999/PLIRP 30.03/UDIRP -9999/USIRP -9999/TWIRP    84/WCIRP -9999
.A CLBP4 20210730 Z DH0812/TAIRG    81/UGIRG -9999/PLIRG 30.02/UDIRG -9999/USIRG -9999/TWIRG    84/WCIRG -9999
.A ESPP4 20210730 Z DH0818/TAIRP -9999/UGIRP    15/PLIRP 30.03/UDIRP    94/USIRP     8/TWIRP -9999/WCIRP -9999
.E AROP4 20210730 Z DH0806/PLIRG/DIN06/30.09/30.09
.E AROP4 20210730 Z DH0806/USIRG/DIN06/    4/    4
.E AROP4 20210730 Z DH0806/UDIRG/DIN06/  152/  160
.E AROP4 20210730 Z DH0806/UGIRG/DIN06/    4/    5
.E AROP4 20210730 Z DH0806/TWIRG/DIN06/   82/   82
.E MGZP4 20210730 Z DH0806/TAIRG/DIN06/   77/   77
.E MGZP4 20210730 Z DH0806/PLIRG/DIN06/30.00/30.00
.E MGZP4 20210730 Z DH0806/TWIRG/DIN06/   85/   85



USA.gov is the U.S. government's official web portal to all federal, state and local government web resources and services.